sensor_id;sensor_type;location;lat;lon;timestamp;P1;durP1;ratioP1;P2;durP2;ratioP2
39218;SDS011;24934;52.752;6.964;2023-03-14T00:00:33;22.43;;;9.87;;
39218;SDS011;24934;52.752;6.964;2023-03-14T00:02:59;35.20;;;10.33;;
39218;SDS011;24934;52.752;6.964;2023-03-14T00:05:25;33.20;;;10.93;;
39218;SDS011;24934;52.752;6.964;2023-03-14T00:07:50;30.20;;;10.67;;
39218;SDS011;24934;52.752;6.964;2023-03-14T00:10:16;27.17;;;10.67;;
39218;SDS011;24934;52.752;6.964;2023-03-14T00:12:42;32.03;;;11.30;;
39218;SDS011;24934;52.752;6.964;2023-03-14T00:15:09;32.10;;;10.70;;
39218;SDS011;24934;52.752;6.964;2023-03-14T00:17:35;33.87;;;10.93;;
39218;SDS011;24934;52.752;6.964;2023-03-14T00:20:02;25.90;;;11.50;;
39218;SDS011;24934;52.752;6.964;2023-03-14T00:22:33;28.10;;;10.67;;
39218;SDS011;24934;52.752;6.964;2023-03-14T00:24:59;23.83;;;10.60;;
39218;SDS011;24934;52.752;6.964;2023-03-14T00:27:25;22.67;;;10.03;;
39218;SDS011;24934;52.752;6.964;2023-03-14T00:29:51;23.87;;;9.97;;
39218;SDS011;24934;52.752;6.964;2023-03-14T00:32:16;15.57;;;9.20;;
39218;SDS011;24934;52.752;6.964;2023-03-14T00:34:42;20.70;;;10.50;;
39218;SDS011;24934;52.752;6.964;2023-03-14T00:37:07;19.10;;;11.57;;
39218;SDS011;24934;52.752;6.964;2023-03-14T00:39:33;22.73;;;12.00;;
39218;SDS011;24934;52.752;6.964;2023-03-14T00:41:58;18.10;;;10.67;;
39218;SDS011;24934;52.752;6.964;2023-03-14T00:44:24;16.53;;;10.50;;
39218;SDS011;24934;52.752;6.964;2023-03-14T00:46:50;18.57;;;10.67;;
39218;SDS011;24934;52.752;6.964;2023-03-14T00:49:15;14.90;;;10.80;;
39218;SDS011;24934;52.752;6.964;2023-03-14T00:51:41;19.93;;;10.57;;
39218;SDS011;24934;52.752;6.964;2023-03-14T00:54:07;27.47;;;13.77;;
39218;SDS011;24934;52.752;6.964;2023-03-14T00:56:32;29.47;;;16.10;;
39218;SDS011;24934;52.752;6.964;2023-03-14T00:58:58;26.23;;;16.13;;
39218;SDS011;24934;52.752;6.964;2023-03-14T01:01:24;26.30;;;16.33;;
39218;SDS011;24934;52.752;6.964;2023-03-14T01:03:53;24.40;;;15.30;;
39218;SDS011;24934;52.752;6.964;2023-03-14T01:06:21;29.70;;;16.77;;
39218;SDS011;24934;52.752;6.964;2023-03-14T01:08:49;29.00;;;15.53;;
39218;SDS011;24934;52.752;6.964;2023-03-14T01:11:17;27.03;;;16.33;;
39218;SDS011;24934;52.752;6.964;2023-03-14T01:13:45;29.33;;;14.97;;
39218;SDS011;24934;52.752;6.964;2023-03-14T01:16:11;28.00;;;16.13;;
39218;SDS011;24934;52.752;6.964;2023-03-14T01:18:38;24.37;;;15.43;;
39218;SDS011;24934;52.752;6.964;2023-03-14T01:21:10;20.67;;;14.87;;
39218;SDS011;24934;52.752;6.964;2023-03-14T01:23:44;27.97;;;16.93;;
39218;SDS011;24934;52.752;6.964;2023-03-14T01:26:11;33.73;;;19.10;;
39218;SDS011;24934;52.752;6.964;2023-03-14T01:28:38;22.87;;;18.77;;
39218;SDS011;24934;52.752;6.964;2023-03-14T01:31:05;29.97;;;19.50;;
39218;SDS011;24934;52.752;6.964;2023-03-14T01:33:32;28.47;;;19.43;;
39218;SDS011;24934;52.752;6.964;2023-03-14T01:35:57;32.97;;;19.43;;
39218;SDS011;24934;52.752;6.964;2023-03-14T01:38:23;35.70;;;18.90;;
39218;SDS011;24934;52.752;6.964;2023-03-14T01:40:49;32.87;;;19.03;;
39218;SDS011;24934;52.752;6.964;2023-03-14T01:43:15;32.30;;;18.63;;
39218;SDS011;24934;52.752;6.964;2023-03-14T01:48:23;34.63;;;19.30;;
39218;SDS011;24934;52.752;6.964;2023-03-14T01:50:50;37.30;;;19.93;;
39218;SDS011;24934;52.752;6.964;2023-03-14T01:53:16;34.10;;;18.87;;
39218;SDS011;24934;52.752;6.964;2023-03-14T01:55:46;28.67;;;17.90;;
39218;SDS011;24934;52.752;6.964;2023-03-14T01:58:15;30.30;;;18.00;;
39218;SDS011;24934;52.752;6.964;2023-03-14T02:00:41;28.87;;;18.00;;
39218;SDS011;24934;52.752;6.964;2023-03-14T02:03:09;29.00;;;17.53;;
39218;SDS011;24934;52.752;6.964;2023-03-14T02:05:39;31.33;;;18.43;;
39218;SDS011;24934;52.752;6.964;2023-03-14T02:08:07;26.50;;;17.47;;
39218;SDS011;24934;52.752;6.964;2023-03-14T02:10:41;30.13;;;16.77;;
39218;SDS011;24934;52.752;6.964;2023-03-14T02:13:08;30.97;;;15.93;;
39218;SDS011;24934;52.752;6.964;2023-03-14T02:15:35;25.30;;;16.33;;
39218;SDS011;24934;52.752;6.964;2023-03-14T02:18:01;30.27;;;17.00;;
39218;SDS011;24934;52.752;6.964;2023-03-14T02:23:12;35.13;;;16.50;;
39218;SDS011;24934;52.752;6.964;2023-03-14T02:25:56;25.03;;;15.30;;
39218;SDS011;24934;52.752;6.964;2023-03-14T02:28:27;33.77;;;16.67;;
39218;SDS011;24934;52.752;6.964;2023-03-14T02:30:53;29.17;;;16.70;;
39218;SDS011;24934;52.752;6.964;2023-03-14T02:33:19;26.23;;;16.30;;
39218;SDS011;24934;52.752;6.964;2023-03-14T02:38:45;24.90;;;15.17;;
39218;SDS011;24934;52.752;6.964;2023-03-14T02:41:20;20.67;;;14.13;;
39218;SDS011;24934;52.752;6.964;2023-03-14T02:43:46;15.07;;;13.47;;
39218;SDS011;24934;52.752;6.964;2023-03-14T02:46:13;21.50;;;14.07;;
39218;SDS011;24934;52.752;6.964;2023-03-14T02:48:42;18.57;;;14.17;;
39218;SDS011;24934;52.752;6.964;2023-03-14T02:51:20;20.20;;;13.33;;
39218;SDS011;24934;52.752;6.964;2023-03-14T02:53:47;16.10;;;13.23;;
39218;SDS011;24934;52.752;6.964;2023-03-14T02:56:13;17.83;;;14.27;;
39218;SDS011;24934;52.752;6.964;2023-03-14T02:58:38;18.00;;;13.03;;
39218;SDS011;24934;52.752;6.964;2023-03-14T03:01:04;20.27;;;14.13;;
39218;SDS011;24934;52.752;6.964;2023-03-14T03:03:30;17.10;;;13.80;;
39218;SDS011;24934;52.752;6.964;2023-03-14T03:05:56;17.07;;;13.63;;
39218;SDS011;24934;52.752;6.964;2023-03-14T03:08:23;17.43;;;14.00;;
39218;SDS011;24934;52.752;6.964;2023-03-14T03:10:51;15.37;;;12.80;;
39218;SDS011;24934;52.752;6.964;2023-03-14T03:13:18;19.93;;;12.90;;
39218;SDS011;24934;52.752;6.964;2023-03-14T03:15:43;17.83;;;13.00;;
39218;SDS011;24934;52.752;6.964;2023-03-14T03:18:09;23.07;;;13.53;;
39218;SDS011;24934;52.752;6.964;2023-03-14T03:20:35;15.33;;;13.07;;
39218;SDS011;24934;52.752;6.964;2023-03-14T03:23:01;15.57;;;12.80;;
39218;SDS011;24934;52.752;6.964;2023-03-14T03:25:26;19.13;;;13.43;;
39218;SDS011;24934;52.752;6.964;2023-03-14T03:27:53;20.10;;;14.20;;
39218;SDS011;24934;52.752;6.964;2023-03-14T03:30:19;18.60;;;13.33;;
39218;SDS011;24934;52.752;6.964;2023-03-14T03:32:45;19.03;;;13.07;;
39218;SDS011;24934;52.752;6.964;2023-03-14T03:35:11;15.27;;;12.97;;
39218;SDS011;24934;52.752;6.964;2023-03-14T03:37:37;18.60;;;12.63;;
39218;SDS011;24934;52.752;6.964;2023-03-14T03:40:03;27.33;;;12.77;;
39218;SDS011;24934;52.752;6.964;2023-03-14T03:42:31;15.53;;;12.07;;
39218;SDS011;24934;52.752;6.964;2023-03-14T03:45:00;22.37;;;12.77;;
39218;SDS011;24934;52.752;6.964;2023-03-14T03:47:26;23.37;;;13.00;;
39218;SDS011;24934;52.752;6.964;2023-03-14T03:49:51;23.37;;;12.70;;
39218;SDS011;24934;52.752;6.964;2023-03-14T03:52:17;22.83;;;12.77;;
39218;SDS011;24934;52.752;6.964;2023-03-14T03:54:43;22.87;;;12.63;;
39218;SDS011;24934;52.752;6.964;2023-03-14T03:57:08;19.80;;;12.30;;
39218;SDS011;24934;52.752;6.964;2023-03-14T03:59:34;19.47;;;12.40;;
39218;SDS011;24934;52.752;6.964;2023-03-14T04:02:00;20.57;;;12.50;;
39218;SDS011;24934;52.752;6.964;2023-03-14T04:04:25;20.07;;;12.20;;
39218;SDS011;24934;52.752;6.964;2023-03-14T04:06:51;22.30;;;13.03;;
39218;SDS011;24934;52.752;6.964;2023-03-14T04:09:17;21.27;;;12.80;;
39218;SDS011;24934;52.752;6.964;2023-03-14T04:11:42;20.63;;;12.90;;
39218;SDS011;24934;52.752;6.964;2023-03-14T04:14:08;24.20;;;13.17;;
39218;SDS011;24934;52.752;6.964;2023-03-14T04:16:34;15.70;;;12.23;;
39218;SDS011;24934;52.752;6.964;2023-03-14T04:19:00;25.27;;;13.67;;
39218;SDS011;24934;52.752;6.964;2023-03-14T04:21:26;15.60;;;13.13;;
39218;SDS011;24934;52.752;6.964;2023-03-14T04:23:52;20.67;;;12.37;;
39218;SDS011;24934;52.752;6.964;2023-03-14T04:26:17;25.63;;;13.50;;
39218;SDS011;24934;52.752;6.964;2023-03-14T04:28:43;20.27;;;14.13;;
39218;SDS011;24934;52.752;6.964;2023-03-14T04:31:09;22.10;;;14.67;;
39218;SDS011;24934;52.752;6.964;2023-03-14T04:33:37;19.23;;;14.40;;
39218;SDS011;24934;52.752;6.964;2023-03-14T04:36:04;17.20;;;14.73;;
39218;SDS011;24934;52.752;6.964;2023-03-14T04:38:31;20.67;;;15.83;;
39218;SDS011;24934;52.752;6.964;2023-03-14T04:40:56;19.50;;;15.50;;
39218;SDS011;24934;52.752;6.964;2023-03-14T04:43:22;21.57;;;15.60;;
39218;SDS011;24934;52.752;6.964;2023-03-14T04:45:48;21.37;;;15.40;;
39218;SDS011;24934;52.752;6.964;2023-03-14T04:48:14;18.73;;;14.93;;
39218;SDS011;24934;52.752;6.964;2023-03-14T04:50:39;24.63;;;15.80;;
39218;SDS011;24934;52.752;6.964;2023-03-14T04:53:05;20.60;;;14.90;;
39218;SDS011;24934;52.752;6.964;2023-03-14T04:55:31;20.17;;;14.63;;
39218;SDS011;24934;52.752;6.964;2023-03-14T04:57:59;19.10;;;14.63;;
39218;SDS011;24934;52.752;6.964;2023-03-14T05:00:25;17.30;;;15.13;;
39218;SDS011;24934;52.752;6.964;2023-03-14T05:02:50;23.70;;;14.97;;
39218;SDS011;24934;52.752;6.964;2023-03-14T05:05:16;21.07;;;14.80;;
39218;SDS011;24934;52.752;6.964;2023-03-14T05:07:42;22.47;;;14.70;;
39218;SDS011;24934;52.752;6.964;2023-03-14T05:10:08;17.33;;;14.43;;
39218;SDS011;24934;52.752;6.964;2023-03-14T05:12:34;17.67;;;13.93;;
39218;SDS011;24934;52.752;6.964;2023-03-14T05:15:00;19.90;;;14.10;;
39218;SDS011;24934;52.752;6.964;2023-03-14T05:17:26;18.60;;;14.03;;
39218;SDS011;24934;52.752;6.964;2023-03-14T05:19:51;21.10;;;15.23;;
39218;SDS011;24934;52.752;6.964;2023-03-14T05:22:17;27.97;;;15.00;;
39218;SDS011;24934;52.752;6.964;2023-03-14T05:24:43;22.80;;;15.83;;
39218;SDS011;24934;52.752;6.964;2023-03-14T05:27:08;19.87;;;15.23;;
39218;SDS011;24934;52.752;6.964;2023-03-14T05:29:34;24.73;;;15.47;;
39218;SDS011;24934;52.752;6.964;2023-03-14T05:32:00;28.43;;;15.17;;
39218;SDS011;24934;52.752;6.964;2023-03-14T05:34:26;19.97;;;14.57;;
39218;SDS011;24934;52.752;6.964;2023-03-14T05:36:51;25.97;;;15.40;;
39218;SDS011;24934;52.752;6.964;2023-03-14T05:39:17;27.40;;;15.83;;
39218;SDS011;24934;52.752;6.964;2023-03-14T05:41:43;22.73;;;16.03;;
39218;SDS011;24934;52.752;6.964;2023-03-14T05:44:08;25.97;;;15.93;;
39218;SDS011;24934;52.752;6.964;2023-03-14T05:46:34;25.60;;;15.80;;
39218;SDS011;24934;52.752;6.964;2023-03-14T05:49:00;25.90;;;16.03;;
39218;SDS011;24934;52.752;6.964;2023-03-14T05:51:25;29.13;;;16.87;;
39218;SDS011;24934;52.752;6.964;2023-03-14T05:53:51;21.60;;;16.77;;
39218;SDS011;24934;52.752;6.964;2023-03-14T05:56:16;21.30;;;15.10;;
39218;SDS011;24934;52.752;6.964;2023-03-14T05:58:42;20.83;;;15.50;;
39218;SDS011;24934;52.752;6.964;2023-03-14T06:01:08;22.00;;;15.43;;
39218;SDS011;24934;52.752;6.964;2023-03-14T06:03:34;29.13;;;16.07;;
39218;SDS011;24934;52.752;6.964;2023-03-14T06:05:59;28.87;;;15.93;;
39218;SDS011;24934;52.752;6.964;2023-03-14T06:08:26;24.27;;;15.57;;
39218;SDS011;24934;52.752;6.964;2023-03-14T06:10:52;22.43;;;15.60;;
39218;SDS011;24934;52.752;6.964;2023-03-14T06:13:18;26.13;;;16.27;;
39218;SDS011;24934;52.752;6.964;2023-03-14T06:15:43;23.00;;;16.47;;
39218;SDS011;24934;52.752;6.964;2023-03-14T06:18:09;25.43;;;17.27;;
39218;SDS011;24934;52.752;6.964;2023-03-14T06:20:36;25.63;;;15.90;;
39218;SDS011;24934;52.752;6.964;2023-03-14T06:23:04;31.03;;;16.33;;
39218;SDS011;24934;52.752;6.964;2023-03-14T06:25:31;24.63;;;16.30;;
39218;SDS011;24934;52.752;6.964;2023-03-14T06:27:57;24.30;;;16.03;;
39218;SDS011;24934;52.752;6.964;2023-03-14T06:30:23;26.57;;;15.80;;
39218;SDS011;24934;52.752;6.964;2023-03-14T06:32:49;23.73;;;16.37;;
39218;SDS011;24934;52.752;6.964;2023-03-14T06:35:14;27.93;;;16.93;;
39218;SDS011;24934;52.752;6.964;2023-03-14T06:37:40;22.47;;;16.70;;
39218;SDS011;24934;52.752;6.964;2023-03-14T06:40:06;25.87;;;17.77;;
39218;SDS011;24934;52.752;6.964;2023-03-14T06:42:33;33.57;;;18.40;;
39218;SDS011;24934;52.752;6.964;2023-03-14T06:44:59;23.83;;;17.67;;
39218;SDS011;24934;52.752;6.964;2023-03-14T06:47:24;24.77;;;18.23;;
39218;SDS011;24934;52.752;6.964;2023-03-14T06:49:50;29.47;;;18.57;;
39218;SDS011;24934;52.752;6.964;2023-03-14T06:52:16;25.00;;;18.37;;
39218;SDS011;24934;52.752;6.964;2023-03-14T06:54:41;26.97;;;18.60;;
39218;SDS011;24934;52.752;6.964;2023-03-14T06:57:07;26.47;;;19.07;;
39218;SDS011;24934;52.752;6.964;2023-03-14T06:59:32;26.47;;;18.27;;
39218;SDS011;24934;52.752;6.964;2023-03-14T07:01:58;24.80;;;17.97;;
39218;SDS011;24934;52.752;6.964;2023-03-14T07:04:24;25.60;;;18.13;;
39218;SDS011;24934;52.752;6.964;2023-03-14T07:06:49;28.67;;;18.80;;
39218;SDS011;24934;52.752;6.964;2023-03-14T07:09:15;22.43;;;17.60;;
39218;SDS011;24934;52.752;6.964;2023-03-14T07:11:42;28.40;;;17.93;;
39218;SDS011;24934;52.752;6.964;2023-03-14T07:14:08;24.37;;;17.97;;
39218;SDS011;24934;52.752;6.964;2023-03-14T07:16:33;23.20;;;18.43;;
39218;SDS011;24934;52.752;6.964;2023-03-14T07:18:59;20.70;;;17.73;;
39218;SDS011;24934;52.752;6.964;2023-03-14T07:21:26;21.13;;;17.40;;
39218;SDS011;24934;52.752;6.964;2023-03-14T07:23:51;27.53;;;17.50;;
39218;SDS011;24934;52.752;6.964;2023-03-14T07:26:17;24.20;;;17.77;;
39218;SDS011;24934;52.752;6.964;2023-03-14T07:28:43;19.87;;;17.57;;
39218;SDS011;24934;52.752;6.964;2023-03-14T07:31:09;24.80;;;17.30;;
39218;SDS011;24934;52.752;6.964;2023-03-14T07:33:34;22.03;;;17.67;;
39218;SDS011;24934;52.752;6.964;2023-03-14T07:36:00;22.43;;;16.60;;
39218;SDS011;24934;52.752;6.964;2023-03-14T07:38:26;21.87;;;17.13;;
39218;SDS011;24934;52.752;6.964;2023-03-14T07:41:01;22.80;;;17.33;;
39218;SDS011;24934;52.752;6.964;2023-03-14T07:43:28;24.60;;;17.30;;
39218;SDS011;24934;52.752;6.964;2023-03-14T07:45:54;25.20;;;16.70;;
39218;SDS011;24934;52.752;6.964;2023-03-14T07:48:20;29.60;;;17.87;;
39218;SDS011;24934;52.752;6.964;2023-03-14T07:50:49;22.57;;;16.80;;
39218;SDS011;24934;52.752;6.964;2023-03-14T07:53:16;18.20;;;16.30;;
39218;SDS011;24934;52.752;6.964;2023-03-14T07:55:41;17.03;;;15.33;;
39218;SDS011;24934;52.752;6.964;2023-03-14T07:58:07;17.63;;;15.87;;
39218;SDS011;24934;52.752;6.964;2023-03-14T08:00:32;16.87;;;15.07;;
39218;SDS011;24934;52.752;6.964;2023-03-14T08:02:58;18.07;;;15.13;;
39218;SDS011;24934;52.752;6.964;2023-03-14T08:05:24;16.50;;;15.00;;
39218;SDS011;24934;52.752;6.964;2023-03-14T08:07:49;15.20;;;13.80;;
39218;SDS011;24934;52.752;6.964;2023-03-14T08:10:15;14.97;;;13.77;;
39218;SDS011;24934;52.752;6.964;2023-03-14T08:12:48;16.27;;;14.60;;
39218;SDS011;24934;52.752;6.964;2023-03-14T08:15:18;15.00;;;13.57;;
39218;SDS011;24934;52.752;6.964;2023-03-14T08:17:44;14.60;;;13.10;;
39218;SDS011;24934;52.752;6.964;2023-03-14T08:20:10;14.33;;;13.03;;
39218;SDS011;24934;52.752;6.964;2023-03-14T08:22:37;18.93;;;13.77;;
39218;SDS011;24934;52.752;6.964;2023-03-14T08:25:03;15.20;;;13.60;;
39218;SDS011;24934;52.752;6.964;2023-03-14T08:27:29;14.97;;;13.17;;
39218;SDS011;24934;52.752;6.964;2023-03-14T08:29:54;14.80;;;13.40;;
39218;SDS011;24934;52.752;6.964;2023-03-14T08:32:20;16.33;;;13.83;;
39218;SDS011;24934;52.752;6.964;2023-03-14T08:34:47;16.63;;;13.90;;
39218;SDS011;24934;52.752;6.964;2023-03-14T08:37:13;16.13;;;13.63;;
39218;SDS011;24934;52.752;6.964;2023-03-14T08:39:38;15.87;;;14.20;;
39218;SDS011;24934;52.752;6.964;2023-03-14T08:42:04;18.47;;;13.97;;
39218;SDS011;24934;52.752;6.964;2023-03-14T08:44:29;16.20;;;14.80;;
39218;SDS011;24934;52.752;6.964;2023-03-14T08:46:55;15.67;;;14.40;;
39218;SDS011;24934;52.752;6.964;2023-03-14T08:49:21;16.10;;;14.60;;
39218;SDS011;24934;52.752;6.964;2023-03-14T08:51:46;15.50;;;14.23;;
39218;SDS011;24934;52.752;6.964;2023-03-14T08:54:12;15.53;;;14.20;;
39218;SDS011;24934;52.752;6.964;2023-03-14T08:56:38;15.50;;;14.20;;
39218;SDS011;24934;52.752;6.964;2023-03-14T08:59:04;15.00;;;13.80;;
39218;SDS011;24934;52.752;6.964;2023-03-14T09:01:30;14.83;;;13.57;;
39218;SDS011;24934;52.752;6.964;2023-03-14T09:03:56;15.33;;;13.77;;
39218;SDS011;24934;52.752;6.964;2023-03-14T09:06:21;14.80;;;13.60;;
39218;SDS011;24934;52.752;6.964;2023-03-14T09:08:47;14.67;;;13.37;;
39218;SDS011;24934;52.752;6.964;2023-03-14T09:11:12;15.17;;;13.70;;
39218;SDS011;24934;52.752;6.964;2023-03-14T09:13:39;16.17;;;14.60;;
39218;SDS011;24934;52.752;6.964;2023-03-14T09:16:05;15.70;;;14.40;;
39218;SDS011;24934;52.752;6.964;2023-03-14T09:18:31;15.50;;;14.10;;
39218;SDS011;24934;52.752;6.964;2023-03-14T09:20:57;14.60;;;13.47;;
39218;SDS011;24934;52.752;6.964;2023-03-14T09:23:22;15.43;;;14.03;;
39218;SDS011;24934;52.752;6.964;2023-03-14T09:25:48;15.03;;;13.77;;
39218;SDS011;24934;52.752;6.964;2023-03-14T09:28:13;15.73;;;14.20;;
39218;SDS011;24934;52.752;6.964;2023-03-14T09:30:39;17.00;;;14.30;;
39218;SDS011;24934;52.752;6.964;2023-03-14T09:33:05;15.23;;;13.77;;
39218;SDS011;24934;52.752;6.964;2023-03-14T09:35:32;15.40;;;14.00;;
39218;SDS011;24934;52.752;6.964;2023-03-14T09:37:58;16.37;;;14.73;;
39218;SDS011;24934;52.752;6.964;2023-03-14T09:40:24;20.40;;;15.40;;
39218;SDS011;24934;52.752;6.964;2023-03-14T09:42:56;16.53;;;14.70;;
39218;SDS011;24934;52.752;6.964;2023-03-14T09:45:34;18.47;;;14.67;;
39218;SDS011;24934;52.752;6.964;2023-03-14T09:48:02;15.27;;;13.80;;
39218;SDS011;24934;52.752;6.964;2023-03-14T09:53:28;18.33;;;14.20;;
39218;SDS011;24934;52.752;6.964;2023-03-14T09:56:12;19.43;;;14.70;;
39218;SDS011;24934;52.752;6.964;2023-03-14T09:58:42;16.27;;;14.10;;
39218;SDS011;24934;52.752;6.964;2023-03-14T10:01:11;16.77;;;13.37;;
39218;SDS011;24934;52.752;6.964;2023-03-14T10:03:41;20.93;;;14.47;;
39218;SDS011;24934;52.752;6.964;2023-03-14T10:06:13;21.40;;;15.40;;
39218;SDS011;24934;52.752;6.964;2023-03-14T10:08:40;23.53;;;15.23;;
39218;SDS011;24934;52.752;6.964;2023-03-14T10:11:10;21.93;;;15.07;;
39218;SDS011;24934;52.752;6.964;2023-03-14T10:16:34;18.27;;;15.10;;
39218;SDS011;24934;52.752;6.964;2023-03-14T10:19:11;20.63;;;14.63;;
39218;SDS011;24934;52.752;6.964;2023-03-14T10:21:39;22.70;;;14.83;;
39218;SDS011;24934;52.752;6.964;2023-03-14T10:24:17;22.97;;;15.43;;
39218;SDS011;24934;52.752;6.964;2023-03-14T10:26:52;23.53;;;15.20;;
39218;SDS011;24934;52.752;6.964;2023-03-14T10:29:32;34.50;;;24.77;;
39218;SDS011;24934;52.752;6.964;2023-03-14T10:32:03;24.47;;;15.63;;
39218;SDS011;24934;52.752;6.964;2023-03-14T10:34:32;22.63;;;15.93;;
39218;SDS011;24934;52.752;6.964;2023-03-14T10:37:15;21.33;;;16.10;;
39218;SDS011;24934;52.752;6.964;2023-03-14T10:39:51;24.10;;;16.53;;
39218;SDS011;24934;52.752;6.964;2023-03-14T10:42:26;29.57;;;17.53;;
39218;SDS011;24934;52.752;6.964;2023-03-14T10:44:55;28.60;;;16.67;;
39218;SDS011;24934;52.752;6.964;2023-03-14T10:47:23;29.73;;;17.50;;
39218;SDS011;24934;52.752;6.964;2023-03-14T10:49:51;27.67;;;17.20;;
39218;SDS011;24934;52.752;6.964;2023-03-14T10:54:54;30.37;;;16.13;;
39218;SDS011;24934;52.752;6.964;2023-03-14T10:57:22;25.73;;;16.23;;
39218;SDS011;24934;52.752;6.964;2023-03-14T10:59:49;26.10;;;16.70;;
39218;SDS011;24934;52.752;6.964;2023-03-14T11:02:31;30.93;;;17.00;;
39218;SDS011;24934;52.752;6.964;2023-03-14T11:05:04;30.33;;;17.10;;
39218;SDS011;24934;52.752;6.964;2023-03-14T11:07:36;31.10;;;16.87;;
39218;SDS011;24934;52.752;6.964;2023-03-14T11:15:57;31.33;;;17.00;;
39218;SDS011;24934;52.752;6.964;2023-03-14T11:18:36;29.37;;;16.20;;
39218;SDS011;24934;52.752;6.964;2023-03-14T11:29:23;31.33;;;16.70;;
39218;SDS011;24934;52.752;6.964;2023-03-14T11:32:12;33.47;;;16.63;;
39218;SDS011;24934;52.752;6.964;2023-03-14T11:34:48;31.97;;;16.87;;
39218;SDS011;24934;52.752;6.964;2023-03-14T11:37:21;27.53;;;16.30;;
39218;SDS011;24934;52.752;6.964;2023-03-14T11:39:56;24.93;;;16.50;;
39218;SDS011;24934;52.752;6.964;2023-03-14T11:42:29;24.23;;;15.53;;
39218;SDS011;24934;52.752;6.964;2023-03-14T11:44:57;26.13;;;15.80;;
39218;SDS011;24934;52.752;6.964;2023-03-14T11:47:28;26.03;;;15.53;;
39218;SDS011;24934;52.752;6.964;2023-03-14T11:50:00;25.70;;;15.47;;
39218;SDS011;24934;52.752;6.964;2023-03-14T11:55:22;23.80;;;15.27;;
39218;SDS011;24934;52.752;6.964;2023-03-14T11:57:53;22.77;;;15.93;;
39218;SDS011;24934;52.752;6.964;2023-03-14T12:00:23;23.40;;;15.37;;
39218;SDS011;24934;52.752;6.964;2023-03-14T12:05:50;19.00;;;15.20;;
39218;SDS011;24934;52.752;6.964;2023-03-14T12:14:01;23.10;;;14.90;;
39218;SDS011;24934;52.752;6.964;2023-03-14T12:16:37;20.70;;;15.47;;
39218;SDS011;24934;52.752;6.964;2023-03-14T12:22:05;17.53;;;15.63;;
39218;SDS011;24934;52.752;6.964;2023-03-14T12:24:54;21.33;;;13.53;;
39218;SDS011;24934;52.752;6.964;2023-03-14T12:30:27;17.27;;;15.03;;
39218;SDS011;24934;52.752;6.964;2023-03-14T12:35:42;20.33;;;14.80;;
39218;SDS011;24934;52.752;6.964;2023-03-14T12:41:00;18.43;;;16.60;;
39218;SDS011;24934;52.752;6.964;2023-03-14T12:43:53;21.13;;;15.93;;
39218;SDS011;24934;52.752;6.964;2023-03-14T12:46:20;18.50;;;14.90;;
39218;SDS011;24934;52.752;6.964;2023-03-14T12:48:48;15.53;;;13.80;;
39218;SDS011;24934;52.752;6.964;2023-03-14T12:51:17;15.53;;;13.90;;
39218;SDS011;24934;52.752;6.964;2023-03-14T13:04:34;17.27;;;15.20;;
39218;SDS011;24934;52.752;6.964;2023-03-14T13:07:10;16.60;;;14.90;;
39218;SDS011;24934;52.752;6.964;2023-03-14T13:09:55;17.13;;;14.13;;
39218;SDS011;24934;52.752;6.964;2023-03-14T13:12:34;18.37;;;14.37;;
39218;SDS011;24934;52.752;6.964;2023-03-14T13:15:34;16.97;;;13.60;;
39218;SDS011;24934;52.752;6.964;2023-03-14T13:18:03;16.27;;;13.40;;
39218;SDS011;24934;52.752;6.964;2023-03-14T13:20:58;16.00;;;13.17;;
39218;SDS011;24934;52.752;6.964;2023-03-14T13:23:30;14.40;;;12.30;;
39218;SDS011;24934;52.752;6.964;2023-03-14T13:25:58;14.23;;;12.50;;
39218;SDS011;24934;52.752;6.964;2023-03-14T13:28:25;15.40;;;13.90;;
39218;SDS011;24934;52.752;6.964;2023-03-14T13:30:57;14.27;;;12.60;;
39218;SDS011;24934;52.752;6.964;2023-03-14T13:33:24;16.83;;;14.00;;
39218;SDS011;24934;52.752;6.964;2023-03-14T13:36:00;17.13;;;13.75;;
39218;SDS011;24934;52.752;6.964;2023-03-14T13:38:29;14.82;;;13.30;;
39218;SDS011;24934;52.752;6.964;2023-03-14T13:41:00;17.15;;;13.95;;
39218;SDS011;24934;52.752;6.964;2023-03-14T13:43:30;15.45;;;13.98;;
39218;SDS011;24934;52.752;6.964;2023-03-14T13:46:11;20.70;;;13.80;;
39218;SDS011;24934;52.752;6.964;2023-03-14T13:48:48;16.17;;;14.10;;
39218;SDS011;24934;52.752;6.964;2023-03-14T13:51:17;15.47;;;13.83;;
39218;SDS011;24934;52.752;6.964;2023-03-14T13:53:48;15.33;;;13.30;;
39218;SDS011;24934;52.752;6.964;2023-03-14T13:56:16;16.30;;;13.97;;
39218;SDS011;24934;52.752;6.964;2023-03-14T13:58:49;15.83;;;14.20;;
39218;SDS011;24934;52.752;6.964;2023-03-14T14:01:16;14.77;;;13.27;;
39218;SDS011;24934;52.752;6.964;2023-03-14T14:03:52;14.90;;;13.33;;
39218;SDS011;24934;52.752;6.964;2023-03-14T14:09:00;14.97;;;13.43;;
39218;SDS011;24934;52.752;6.964;2023-03-14T14:11:42;16.77;;;13.80;;
39218;SDS011;24934;52.752;6.964;2023-03-14T14:14:13;19.33;;;14.13;;
39218;SDS011;24934;52.752;6.964;2023-03-14T14:16:43;15.50;;;14.00;;
39218;SDS011;24934;52.752;6.964;2023-03-14T14:19:11;18.30;;;14.20;;
39218;SDS011;24934;52.752;6.964;2023-03-14T14:21:38;16.07;;;13.27;;
39218;SDS011;24934;52.752;6.964;2023-03-14T14:24:04;16.43;;;13.93;;
39218;SDS011;24934;52.752;6.964;2023-03-14T14:26:31;15.03;;;13.30;;
39218;SDS011;24934;52.752;6.964;2023-03-14T14:29:26;14.87;;;13.40;;
39218;SDS011;24934;52.752;6.964;2023-03-14T14:31:58;15.33;;;13.70;;
39218;SDS011;24934;52.752;6.964;2023-03-14T14:35:22;15.37;;;13.77;;
39218;SDS011;24934;52.752;6.964;2023-03-14T14:37:48;17.30;;;14.53;;
39218;SDS011;24934;52.752;6.964;2023-03-14T14:40:25;17.33;;;13.83;;
39218;SDS011;24934;52.752;6.964;2023-03-14T14:42:52;16.73;;;14.07;;
39218;SDS011;24934;52.752;6.964;2023-03-14T14:45:19;19.67;;;14.63;;
39218;SDS011;24934;52.752;6.964;2023-03-14T14:47:49;17.50;;;14.40;;
39218;SDS011;24934;52.752;6.964;2023-03-14T14:50:26;14.97;;;13.57;;
39218;SDS011;24934;52.752;6.964;2023-03-14T14:53:01;13.97;;;12.37;;
39218;SDS011;24934;52.752;6.964;2023-03-14T14:55:44;15.07;;;12.67;;
39218;SDS011;24934;52.752;6.964;2023-03-14T14:58:23;14.27;;;12.80;;
39218;SDS011;24934;52.752;6.964;2023-03-14T15:01:07;16.23;;;13.53;;
39218;SDS011;24934;52.752;6.964;2023-03-14T15:03:36;16.20;;;14.00;;
39218;SDS011;24934;52.752;6.964;2023-03-14T15:06:03;14.70;;;13.07;;
39218;SDS011;24934;52.752;6.964;2023-03-14T15:08:29;15.43;;;13.23;;
39218;SDS011;24934;52.752;6.964;2023-03-14T15:10:55;16.73;;;13.07;;
39218;SDS011;24934;52.752;6.964;2023-03-14T15:13:22;13.83;;;12.30;;
39218;SDS011;24934;52.752;6.964;2023-03-14T15:15:49;14.67;;;13.00;;
39218;SDS011;24934;52.752;6.964;2023-03-14T15:18:20;19.47;;;13.10;;
39218;SDS011;24934;52.752;6.964;2023-03-14T15:20:47;13.73;;;12.33;;
39218;SDS011;24934;52.752;6.964;2023-03-14T15:23:14;14.93;;;11.87;;
39218;SDS011;24934;52.752;6.964;2023-03-14T15:25:41;14.93;;;12.13;;
39218;SDS011;24934;52.752;6.964;2023-03-14T15:28:16;14.07;;;11.70;;
39218;SDS011;24934;52.752;6.964;2023-03-14T15:30:45;13.67;;;12.20;;
39218;SDS011;24934;52.752;6.964;2023-03-14T15:33:12;17.57;;;11.90;;
39218;SDS011;24934;52.752;6.964;2023-03-14T15:35:38;13.40;;;12.00;;